sensor_id;sensor_type;location;lat;lon;timestamp;pressure;altitude;pressure_sealevel;temperature;humidity
8697;BME280;4385;48.848;8.924;2023-05-11T00:00:00;97186.47;;;20.14;100.00
8697;BME280;4385;48.848;8.924;2023-05-11T00:02:25;97184.81;;;20.13;100.00
8697;BME280;4385;48.848;8.924;2023-05-11T00:04:50;97195.88;;;20.13;100.00
8697;BME280;4385;48.848;8.924;2023-05-11T00:07:16;97189.94;;;20.13;100.00
8697;BME280;4385;48.848;8.924;2023-05-11T00:09:41;97189.03;;;20.14;100.00
8697;BME280;4385;48.848;8.924;2023-05-11T00:12:06;97184.81;;;20.13;100.00
8697;BME280;4385;48.848;8.924;2023-05-11T00:14:32;97187.44;;;20.11;100.00
8697;BME280;4385;48.848;8.924;2023-05-11T00:16:57;97188.28;;;20.10;100.00
8697;BME280;4385;48.848;8.924;2023-05-11T00:19:22;97190.03;;;20.10;100.00
8697;BME280;4385;48.848;8.924;2023-05-11T00:21:47;97189.94;;;20.13;100.00
8697;BME280;4385;48.848;8.924;2023-05-11T00:24:13;97189.88;;;20.14;100.00
8697;BME280;4385;48.848;8.924;2023-05-11T00:26:38;97188.13;;;20.15;100.00
8697;BME280;4385;48.848;8.924;2023-05-11T00:29:03;97183.88;;;20.15;100.00
8697;BME280;4385;48.848;8.924;2023-05-11T00:31:28;97182.09;;;20.17;100.00
8697;BME280;4385;48.848;8.924;2023-05-11T00:33:54;97182.06;;;20.19;100.00
8697;BME280;4385;48.848;8.924;2023-05-11T00:36:19;97174.38;;;20.19;100.00
8697;BME280;4385;48.848;8.924;2023-05-11T00:38:45;97172.56;;;20.21;100.00
8697;BME280;4385;48.848;8.924;2023-05-11T00:41:10;97172.56;;;20.21;100.00
8697;BME280;4385;48.848;8.924;2023-05-11T00:43:36;97170.03;;;20.21;100.00
8697;BME280;4385;48.848;8.924;2023-05-11T00:46:02;97163.25;;;20.20;100.00
8697;BME280;4385;48.848;8.924;2023-05-11T00:48:27;97167.47;;;20.21;100.00
8697;BME280;4385;48.848;8.924;2023-05-11T00:50:53;97165.81;;;20.20;100.00
8697;BME280;4385;48.848;8.924;2023-05-11T00:53:18;97164.03;;;20.22;100.00
8697;BME280;4385;48.848;8.924;2023-05-11T00:55:44;97164.97;;;20.19;100.00
8697;BME280;4385;48.848;8.924;2023-05-11T00:58:09;97160.69;;;20.20;100.00
8697;BME280;4385;48.848;8.924;2023-05-11T01:00:35;97169.25;;;20.19;100.00
8697;BME280;4385;48.848;8.924;2023-05-11T01:03:01;97164.03;;;20.22;100.00
8697;BME280;4385;48.848;8.924;2023-05-11T01:05:33;97163.94;;;20.25;100.00
8697;BME280;4385;48.848;8.924;2023-05-11T01:08:11;97169.03;;;20.25;100.00
8697;BME280;4385;48.848;8.924;2023-05-11T01:11:01;97169.03;;;20.25;100.00
8697;BME280;4385;48.848;8.924;2023-05-11T01:13:33;97166.53;;;20.24;100.00
8697;BME280;4385;48.848;8.924;2023-05-11T01:16:07;97161.47;;;20.22;100.00
8697;BME280;4385;48.848;8.924;2023-05-11T01:18:48;97168.31;;;20.22;100.00
8697;BME280;4385;48.848;8.924;2023-05-11T01:21:16;97173.47;;;20.20;100.00
8697;BME280;4385;48.848;8.924;2023-05-11T01:32:17;97166.91;;;20.13;100.00
8697;BME280;4385;48.848;8.924;2023-05-11T01:34:44;97170.34;;;20.12;100.00
8697;BME280;4385;48.848;8.924;2023-05-11T01:37:14;97171.22;;;20.11;100.00
8697;BME280;4385;48.848;8.924;2023-05-11T01:39:51;97168.63;;;20.12;100.00
8697;BME280;4385;48.848;8.924;2023-05-11T01:42:29;97171.22;;;20.11;100.00
8697;BME280;4385;48.848;8.924;2023-05-11T01:44:58;97165.28;;;20.10;100.00
8697;BME280;4385;48.848;8.924;2023-05-11T01:47:25;97171.22;;;20.11;100.00
8697;BME280;4385;48.848;8.924;2023-05-11T01:49:53;97167.88;;;20.09;100.00
8697;BME280;4385;48.848;8.924;2023-05-11T01:52:22;97171.28;;;20.09;100.00
8697;BME280;4385;48.848;8.924;2023-05-11T01:54:50;97167.03;;;20.10;100.00
8697;BME280;4385;48.848;8.924;2023-05-11T01:57:17;97164.50;;;20.08;100.00
8697;BME280;4385;48.848;8.924;2023-05-11T01:59:44;97175.59;;;20.07;100.00
8697;BME280;4385;48.848;8.924;2023-05-11T02:02:09;97170.53;;;20.05;100.00
8697;BME280;4385;48.848;8.924;2023-05-11T02:04:37;97168.88;;;20.04;100.00
8697;BME280;4385;48.848;8.924;2023-05-11T02:07:04;97168.03;;;20.04;100.00
8697;BME280;4385;48.848;8.924;2023-05-11T02:09:32;97173.22;;;20.02;100.00
8697;BME280;4385;48.848;8.924;2023-05-11T02:11:59;97173.22;;;20.02;100.00
8697;BME280;4385;48.848;8.924;2023-05-11T02:14:26;97171.50;;;20.01;100.00
8697;BME280;4385;48.848;8.924;2023-05-11T02:16:55;97168.94;;;20.03;100.00
8697;BME280;4385;48.848;8.924;2023-05-11T02:19:20;97179.19;;;20.01;100.00
8697;BME280;4385;48.848;8.924;2023-05-11T02:21:46;97170.72;;;19.99;100.00
8697;BME280;4385;48.848;8.924;2023-05-11T02:24:13;97173.28;;;19.99;100.00
8697;BME280;4385;48.848;8.924;2023-05-11T02:26:40;97182.63;;;20.02;100.00
8697;BME280;4385;48.848;8.924;2023-05-11T02:29:05;97179.19;;;20.01;100.00
8697;BME280;4385;48.848;8.924;2023-05-11T02:31:35;97176.63;;;20.01;100.00
8697;BME280;4385;48.848;8.924;2023-05-11T02:34:17;97181.75;;;20.01;100.00
8697;BME280;4385;48.848;8.924;2023-05-11T02:36:50;97178.31;;;20.02;100.00
8697;BME280;4385;48.848;8.924;2023-05-11T02:39:19;97172.41;;;20.02;100.00
8697;BME280;4385;48.848;8.924;2023-05-11T02:41:54;97174.91;;;20.03;100.00
8697;BME280;4385;48.848;8.924;2023-05-11T02:44:21;97177.47;;;20.03;100.00
8697;BME280;4385;48.848;8.924;2023-05-11T02:46:49;97169.78;;;20.03;100.00
8697;BME280;4385;48.848;8.924;2023-05-11T02:49:20;97171.44;;;20.04;100.00
8697;BME280;4385;48.848;8.924;2023-05-11T02:51:47;97179.97;;;20.05;100.00
8697;BME280;4385;48.848;8.924;2023-05-11T02:54:14;97178.22;;;20.05;100.00
8697;BME280;4385;48.848;8.924;2023-05-11T03:03:36;97176.56;;;20.04;100.00
8697;BME280;4385;48.848;8.924;2023-05-11T03:06:01;97174.06;;;20.03;100.00
8697;BME280;4385;48.848;8.924;2023-05-11T03:08:27;97173.22;;;20.02;100.00
8697;BME280;4385;48.848;8.924;2023-05-11T03:10:53;97174.06;;;20.01;100.00
8697;BME280;4385;48.848;8.924;2023-05-11T03:13:19;97172.41;;;20.00;100.00
8697;BME280;4385;48.848;8.924;2023-05-11T03:15:46;97176.69;;;20.00;100.00
8697;BME280;4385;48.848;8.924;2023-05-11T03:18:13;97173.31;;;19.98;100.00
8697;BME280;4385;48.848;8.924;2023-05-11T03:20:40;97174.22;;;19.97;100.00
8697;BME280;4385;48.848;8.924;2023-05-11T03:23:08;97173.38;;;19.96;100.00
8697;BME280;4385;48.848;8.924;2023-05-11T03:25:34;97171.72;;;19.95;100.00
8697;BME280;4385;48.848;8.924;2023-05-11T03:28:00;97167.44;;;19.96;100.00
8697;BME280;4385;48.848;8.924;2023-05-11T03:30:27;97164.94;;;19.94;100.00
8697;BME280;4385;48.848;8.924;2023-05-11T03:32:53;97168.38;;;19.93;100.00
8697;BME280;4385;48.848;8.924;2023-05-11T03:35:19;97165.00;;;19.92;100.00
8697;BME280;4385;48.848;8.924;2023-05-11T03:37:47;97167.56;;;19.92;100.00
8697;BME280;4385;48.848;8.924;2023-05-11T03:40:13;97162.50;;;19.91;100.00
8697;BME280;4385;48.848;8.924;2023-05-11T03:42:41;97165.91;;;19.90;100.00
8697;BME280;4385;48.848;8.924;2023-05-11T03:45:09;97165.88;;;19.91;100.00
8697;BME280;4385;48.848;8.924;2023-05-11T03:47:38;97156.47;;;19.92;100.00
8697;BME280;4385;48.848;8.924;2023-05-11T03:50:06;97159.88;;;19.92;100.00
8697;BME280;4385;48.848;8.924;2023-05-11T03:52:34;97165.03;;;19.91;100.00
8697;BME280;4385;48.848;8.924;2023-05-11T03:54:59;97159.03;;;19.92;100.00
8697;BME280;4385;48.848;8.924;2023-05-11T03:57:25;97156.47;;;19.92;100.00
8697;BME280;4385;48.848;8.924;2023-05-11T03:59:50;97153.06;;;19.91;100.00
8697;BME280;4385;48.848;8.924;2023-05-11T04:02:15;97156.53;;;19.90;100.00
8697;BME280;4385;48.848;8.924;2023-05-11T04:04:41;97152.31;;;19.89;100.00
8697;BME280;4385;48.848;8.924;2023-05-11T04:07:06;97151.47;;;19.89;100.00
8697;BME280;4385;48.848;8.924;2023-05-11T04:09:31;97149.81;;;19.88;100.00
8697;BME280;4385;48.848;8.924;2023-05-11T04:11:57;97144.69;;;19.88;100.00
8697;BME280;4385;48.848;8.924;2023-05-11T04:14:22;97148.13;;;19.87;100.00
8697;BME280;4385;48.848;8.924;2023-05-11T04:16:47;97147.25;;;19.88;100.00
8697;BME280;4385;48.848;8.924;2023-05-11T04:19:12;97152.25;;;19.91;100.00
8697;BME280;4385;48.848;8.924;2023-05-11T04:21:38;97142.78;;;19.93;100.00
8697;BME280;4385;48.848;8.924;2023-05-11T04:24:03;97153.03;;;19.93;100.00
8697;BME280;4385;48.848;8.924;2023-05-11T04:26:29;97140.25;;;19.93;100.00
8697;BME280;4385;48.848;8.924;2023-05-11T04:28:54;97144.50;;;19.94;100.00
8697;BME280;4385;48.848;8.924;2023-05-11T04:31:19;97147.00;;;19.96;100.00
8697;BME280;4385;48.848;8.924;2023-05-11T04:33:45;97149.50;;;19.97;100.00
8697;BME280;4385;48.848;8.924;2023-05-11T04:36:11;97146.84;;;20.00;100.00
8697;BME280;4385;48.848;8.924;2023-05-11T04:38:36;97152.63;;;20.05;100.00
8697;BME280;4385;48.848;8.924;2023-05-11T04:41:05;97150.97;;;20.04;100.00
8697;BME280;4385;48.848;8.924;2023-05-11T04:43:31;97148.44;;;20.04;100.00
8697;BME280;4385;48.848;8.924;2023-05-11T04:45:56;97161.16;;;20.06;100.00
8697;BME280;4385;48.848;8.924;2023-05-11T04:48:23;97156.03;;;20.06;100.00
8697;BME280;4385;48.848;8.924;2023-05-11T04:50:48;97156.00;;;20.08;100.00
8697;BME280;4385;48.848;8.924;2023-05-11T04:53:14;97154.34;;;20.06;100.00
8697;BME280;4385;48.848;8.924;2023-05-11T04:55:39;97159.44;;;20.06;100.00
8697;BME280;4385;48.848;8.924;2023-05-11T04:58:04;97150.97;;;20.04;100.00
8697;BME280;4385;48.848;8.924;2023-05-11T05:00:30;97154.44;;;20.03;100.00
8697;BME280;4385;48.848;8.924;2023-05-11T05:02:55;97155.31;;;20.02;100.00
8697;BME280;4385;48.848;8.924;2023-05-11T05:05:20;97159.63;;;20.00;100.00
8697;BME280;4385;48.848;8.924;2023-05-11T05:07:45;97154.50;;;20.00;100.00
8697;BME280;4385;48.848;8.924;2023-05-11T05:10:11;97161.38;;;19.98;100.00
8697;BME280;4385;48.848;8.924;2023-05-11T05:12:40;97160.50;;;19.99;100.00
8697;BME280;4385;48.848;8.924;2023-05-11T05:15:06;97163.03;;;19.99;100.00
8697;BME280;4385;48.848;8.924;2023-05-11T05:17:31;97159.63;;;20.00;100.00
8697;BME280;4385;48.848;8.924;2023-05-11T05:19:57;97160.44;;;20.01;100.00
8697;BME280;4385;48.848;8.924;2023-05-11T05:22:23;97154.50;;;20.00;100.00
8697;BME280;4385;48.848;8.924;2023-05-11T05:24:49;97159.63;;;20.00;100.00
8697;BME280;4385;48.848;8.924;2023-05-11T05:27:14;97163.09;;;19.98;100.00
8697;BME280;4385;48.848;8.924;2023-05-11T05:29:39;97164.84;;;19.97;100.00
8697;BME280;4385;48.848;8.924;2023-05-11T05:32:04;97166.59;;;19.95;100.00
8697;BME280;4385;48.848;8.924;2023-05-11T05:34:30;97164.94;;;19.94;100.00
8697;BME280;4385;48.848;8.924;2023-05-11T05:36:55;97170.06;;;19.94;100.00
8697;BME280;4385;48.848;8.924;2023-05-11T05:39:20;97169.16;;;19.95;100.00
8697;BME280;4385;48.848;8.924;2023-05-11T05:41:46;97171.72;;;19.95;100.00
8697;BME280;4385;48.848;8.924;2023-05-11T05:44:11;97167.50;;;19.94;100.00
8697;BME280;4385;48.848;8.924;2023-05-11T05:46:36;97168.38;;;19.93;100.00
8697;BME280;4385;48.848;8.924;2023-05-11T05:49:02;97172.63;;;19.94;100.00
8697;BME280;4385;48.848;8.924;2023-05-11T05:51:27;97176.84;;;19.95;100.00
8697;BME280;4385;48.848;8.924;2023-05-11T05:53:52;97181.94;;;19.95;100.00
8697;BME280;4385;48.848;8.924;2023-05-11T05:56:17;97174.28;;;19.95;100.00
8697;BME280;4385;48.848;8.924;2023-05-11T05:58:43;97172.56;;;19.96;100.00
8697;BME280;4385;48.848;8.924;2023-05-11T06:01:08;97175.13;;;19.96;100.00
8697;BME280;4385;48.848;8.924;2023-05-11T06:03:33;97168.28;;;19.96;100.00
8697;BME280;4385;48.848;8.924;2023-05-11T06:05:59;97178.50;;;19.96;100.00
8697;BME280;4385;48.848;8.924;2023-05-11T06:08:26;97172.50;;;19.97;100.00
8697;BME280;4385;48.848;8.924;2023-05-11T06:10:51;97173.38;;;19.96;100.00
8697;BME280;4385;48.848;8.924;2023-05-11T06:13:17;97170.78;;;19.98;100.00
8697;BME280;4385;48.848;8.924;2023-05-11T06:15:42;97177.56;;;19.99;100.00
8697;BME280;4385;48.848;8.924;2023-05-11T06:18:07;97170.78;;;19.98;100.00
8697;BME280;4385;48.848;8.924;2023-05-11T06:20:33;97175.78;;;20.01;100.00
8697;BME280;4385;48.848;8.924;2023-05-11T06:22:58;97175.78;;;20.01;100.00
8697;BME280;4385;48.848;8.924;2023-05-11T06:25:23;97180.06;;;20.02;100.00
8697;BME280;4385;48.848;8.924;2023-05-11T06:27:48;97174.06;;;20.03;100.00
8697;BME280;4385;48.848;8.924;2023-05-11T06:30:14;97173.16;;;20.04;100.00
8697;BME280;4385;48.848;8.924;2023-05-11T06:32:39;97177.34;;;20.06;100.00
8697;BME280;4385;48.848;8.924;2023-05-11T06:35:05;97171.34;;;20.08;100.00
8697;BME280;4385;48.848;8.924;2023-05-11T06:37:30;97179.81;;;20.10;100.00
8697;BME280;4385;48.848;8.924;2023-05-11T06:39:57;97180.63;;;20.10;100.00
8697;BME280;4385;48.848;8.924;2023-05-11T06:42:22;97166.13;;;20.11;100.00
8697;BME280;4385;48.848;8.924;2023-05-11T06:44:48;97174.59;;;20.13;100.00
8697;BME280;4385;48.848;8.924;2023-05-11T06:47:13;97168.69;;;20.11;100.00
8697;BME280;4385;48.848;8.924;2023-05-11T06:49:40;97170.34;;;20.12;100.00
8697;BME280;4385;48.848;8.924;2023-05-11T06:52:05;97179.75;;;20.11;100.00
8697;BME280;4385;48.848;8.924;2023-05-11T06:54:31;97176.41;;;20.09;100.00
8697;BME280;4385;48.848;8.924;2023-05-11T06:56:56;97174.69;;;20.10;100.00
8697;BME280;4385;48.848;8.924;2023-05-11T06:59:21;97179.81;;;20.10;100.00
8697;BME280;4385;48.848;8.924;2023-05-11T07:01:47;97165.28;;;20.10;100.00
8697;BME280;4385;48.848;8.924;2023-05-11T07:04:12;97173.84;;;20.09;100.00
8697;BME280;4385;48.848;8.924;2023-05-11T07:06:37;97183.19;;;20.10;100.00
8697;BME280;4385;48.848;8.924;2023-05-11T07:09:03;97179.81;;;20.10;100.00
8697;BME280;4385;48.848;8.924;2023-05-11T07:11:29;97181.47;;;20.11;100.00
8697;BME280;4385;48.848;8.924;2023-05-11T07:13:55;97186.59;;;20.11;100.00
8697;BME280;4385;48.848;8.924;2023-05-11T07:16:20;97196.81;;;20.11;100.00
8697;BME280;4385;48.848;8.924;2023-05-11T07:18:46;97187.53;;;20.08;100.00
8697;BME280;4385;48.848;8.924;2023-05-11T07:21:11;97194.34;;;20.08;100.00
8697;BME280;4385;48.848;8.924;2023-05-11T07:23:36;97193.47;;;20.09;100.00
8697;BME280;4385;48.848;8.924;2023-05-11T07:26:01;97189.25;;;20.08;100.00
8697;BME280;4385;48.848;8.924;2023-05-11T07:28:32;97195.25;;;20.06;100.00
8697;BME280;4385;48.848;8.924;2023-05-11T07:30:58;97196.06;;;20.07;100.00
8697;BME280;4385;48.848;8.924;2023-05-11T07:33:23;97201.19;;;20.07;100.00
8697;BME280;4385;48.848;8.924;2023-05-11T07:35:50;97200.38;;;20.06;100.00
8697;BME280;4385;48.848;8.924;2023-05-11T07:38:15;97197.75;;;20.08;100.00
8697;BME280;4385;48.848;8.924;2023-05-11T07:40:42;97196.91;;;20.08;100.00
8697;BME280;4385;48.848;8.924;2023-05-11T07:43:07;97202.81;;;20.10;100.00
8697;BME280;4385;48.848;8.924;2023-05-11T07:45:33;97203.69;;;20.09;100.00
8697;BME280;4385;48.848;8.924;2023-05-11T07:47:58;97201.97;;;20.09;100.00
8697;BME280;4385;48.848;8.924;2023-05-11T07:50:23;97205.38;;;20.10;100.00
8697;BME280;4385;48.848;8.924;2023-05-11T07:52:48;97196.91;;;20.08;100.00
8697;BME280;4385;48.848;8.924;2023-05-11T07:55:14;97201.19;;;20.07;100.00
8697;BME280;4385;48.848;8.924;2023-05-11T07:57:39;97205.50;;;20.06;100.00
8697;BME280;4385;48.848;8.924;2023-05-11T08:00:05;97201.25;;;20.05;100.00
8697;BME280;4385;48.848;8.924;2023-05-11T08:02:31;97202.13;;;20.04;100.00
8697;BME280;4385;48.848;8.924;2023-05-11T08:04:56;97200.44;;;20.05;100.00
8697;BME280;4385;48.848;8.924;2023-05-11T08:07:21;97197.03;;;20.04;100.00
8697;BME280;4385;48.848;8.924;2023-05-11T08:09:47;97204.69;;;20.04;100.00
8697;BME280;4385;48.848;8.924;2023-05-11T08:12:13;97202.13;;;20.04;100.00
8697;BME280;4385;48.848;8.924;2023-05-11T08:14:38;97200.38;;;20.06;100.00
8697;BME280;4385;48.848;8.924;2023-05-11T08:17:05;97198.56;;;20.09;100.00
8697;BME280;4385;48.848;8.924;2023-05-11T08:19:30;97198.47;;;20.12;100.00
8697;BME280;4385;48.848;8.924;2023-05-11T08:21:55;97204.44;;;20.12;100.00
8697;BME280;4385;48.848;8.924;2023-05-11T08:24:20;97202.69;;;20.14;100.00
8697;BME280;4385;48.848;8.924;2023-05-11T08:26:46;97207.75;;;20.16;100.00
8697;BME280;4385;48.848;8.924;2023-05-11T08:29:12;97208.50;;;20.18;100.00
8697;BME280;4385;48.848;8.924;2023-05-11T08:31:37;97205.06;;;20.19;100.00
8697;BME280;4385;48.848;8.924;2023-05-11T08:34:05;97207.53;;;20.22;100.00
8697;BME280;4385;48.848;8.924;2023-05-11T08:36:32;97206.63;;;20.23;100.00
8697;BME280;4385;48.848;8.924;2023-05-11T08:38:57;97204.91;;;20.24;100.00
8697;BME280;4385;48.848;8.924;2023-05-11T08:41:23;97206.53;;;20.26;100.00
8697;BME280;4385;48.848;8.924;2023-05-11T08:43:48;97210.75;;;20.27;100.00
8697;BME280;4385;48.848;8.924;2023-05-11T08:46:19;97208.19;;;20.27;100.00
8697;BME280;4385;48.848;8.924;2023-05-11T08:48:46;97209.88;;;20.28;100.00
8697;BME280;4385;48.848;8.924;2023-05-11T08:51:11;97202.97;;;20.30;100.00
8697;BME280;4385;48.848;8.924;2023-05-11T08:53:36;97201.31;;;20.29;100.00
8697;BME280;4385;48.848;8.924;2023-05-11T08:56:03;97212.38;;;20.30;100.00
8697;BME280;4385;48.848;8.924;2023-05-11T08:58:32;97211.53;;;20.29;100.00
8697;BME280;4385;48.848;8.924;2023-05-11T09:00:58;97202.97;;;20.30;100.00
8697;BME280;4385;48.848;8.924;2023-05-11T09:03:24;97208.09;;;20.30;100.00
8697;BME280;4385;48.848;8.924;2023-05-11T09:05:52;97216.56;;;20.33;100.00
8697;BME280;4385;48.848;8.924;2023-05-11T09:08:18;97208.09;;;20.30;100.00
8697;BME280;4385;48.848;8.924;2023-05-11T09:10:44;97209.88;;;20.28;100.00
8697;BME280;4385;48.848;8.924;2023-05-11T09:13:10;97203.88;;;20.29;100.00
8697;BME280;4385;48.848;8.924;2023-05-11T09:15:36;97215.00;;;20.28;100.00
8697;BME280;4385;48.848;8.924;2023-05-11T09:18:01;97203.91;;;20.28;100.00
8697;BME280;4385;48.848;8.924;2023-05-11T09:20:29;97206.53;;;20.26;100.00
8697;BME280;4385;48.848;8.924;2023-05-11T09:22:56;97210.84;;;20.24;100.00
8697;BME280;4385;48.848;8.924;2023-05-11T09:25:23;97214.31;;;20.23;100.00
8697;BME280;4385;48.848;8.924;2023-05-11T09:27:48;97207.53;;;20.22;100.00
8697;BME280;4385;48.848;8.924;2023-05-11T09:30:16;97206.63;;;20.23;100.00
8697;BME280;4385;48.848;8.924;2023-05-11T09:32:55;97210.09;;;20.22;100.00
8697;BME280;4385;48.848;8.924;2023-05-11T09:35:34;97201.56;;;20.22;100.00
8697;BME280;4385;48.848;8.924;2023-05-11T09:38:05;97206.69;;;20.22;100.00
8697;BME280;4385;48.848;8.924;2023-05-11T09:40:32;97203.28;;;20.21;100.00
8697;BME280;4385;48.848;8.924;2023-05-11T09:42:58;97212.69;;;20.21;100.00
8697;BME280;4385;48.848;8.924;2023-05-11T09:45:45;97206.72;;;20.20;100.00
8697;BME280;4385;48.848;8.924;2023-05-11T09:50:45;97201.63;;;20.20;100.00
8697;BME280;4385;48.848;8.924;2023-05-11T09:53:11;97202.47;;;20.21;100.00
8697;BME280;4385;48.848;8.924;2023-05-11T09:55:36;97199.06;;;20.20;100.00
8697;BME280;4385;48.848;8.924;2023-05-11T09:58:02;97199.97;;;20.19;100.00
8697;BME280;4385;48.848;8.924;2023-05-11T10:00:29;97196.50;;;20.20;100.00
8697;BME280;4385;48.848;8.924;2023-05-11T10:03:12;97202.50;;;20.19;100.00
8697;BME280;4385;48.848;8.924;2023-05-11T10:05:38;97213.63;;;20.18;100.00
8697;BME280;4385;48.848;8.924;2023-05-11T10:08:04;97212.81;;;20.17;100.00
8697;BME280;4385;48.848;8.924;2023-05-11T10:10:31;97209.41;;;20.17;100.00
8697;BME280;4385;48.848;8.924;2023-05-11T10:12:59;97205.19;;;20.16;100.00
8697;BME280;4385;48.848;8.924;2023-05-11T10:15:26;97206.00;;;20.16;100.00
8697;BME280;4385;48.848;8.924;2023-05-11T10:17:56;97201.72;;;20.17;100.00
8697;BME280;4385;48.848;8.924;2023-05-11T10:20:23;97200.81;;;20.18;100.00
8697;BME280;4385;48.848;8.924;2023-05-11T10:22:52;97203.34;;;20.19;100.00
8697;BME280;4385;48.848;8.924;2023-05-11T10:25:21;97203.28;;;20.21;100.00
8697;BME280;4385;48.848;8.924;2023-05-11T10:27:47;97202.41;;;20.22;100.00
8697;BME280;4385;48.848;8.924;2023-05-11T10:30:13;97195.44;;;20.26;100.00
8697;BME280;4385;48.848;8.924;2023-05-11T10:32:38;97199.66;;;20.28;100.00
8697;BME280;4385;48.848;8.924;2023-05-11T10:35:05;97202.09;;;20.31;100.00
8697;BME280;4385;48.848;8.924;2023-05-11T10:37:34;97201.19;;;20.33;100.00
8697;BME280;4385;48.848;8.924;2023-05-11T10:39:59;97197.75;;;20.34;100.00
8697;BME280;4385;48.848;8.924;2023-05-11T10:45:14;97197.63;;;20.37;100.00
8697;BME280;4385;48.848;8.924;2023-05-11T10:50:32;97192.53;;;20.37;100.00
8697;BME280;4385;48.848;8.924;2023-05-11T11:01:38;97187.56;;;20.32;100.00
8697;BME280;4385;48.848;8.924;2023-05-11T11:04:06;97179.06;;;20.31;100.00
8697;BME280;4385;48.848;8.924;2023-05-11T11:06:33;97182.50;;;20.30;100.00
8697;BME280;4385;48.848;8.924;2023-05-11T11:09:04;97184.28;;;20.28;100.00
8697;BME280;4385;48.848;8.924;2023-05-11T11:13:58;97185.94;;;20.29;100.00
8697;BME280;4385;48.848;8.924;2023-05-11T11:16:26;97177.38;;;20.30;100.00
8697;BME280;4385;48.848;8.924;2023-05-11T11:21:53;97174.81;;;20.30;100.00
8697;BME280;4385;48.848;8.924;2023-05-11T11:27:06;97173.94;;;20.31;100.00
8697;BME280;4385;48.848;8.924;2023-05-11T11:29:34;97184.19;;;20.31;100.00
8697;BME280;4385;48.848;8.924;2023-05-11T11:34:43;97177.38;;;20.30;100.00
8697;BME280;4385;48.848;8.924;2023-05-11T11:37:09;97173.16;;;20.29;100.00
8697;BME280;4385;48.848;8.924;2023-05-11T11:42:07;97174.06;;;20.28;100.00
8697;BME280;4385;48.848;8.924;2023-05-11T11:44:33;97174.06;;;20.28;100.00
8697;BME280;4385;48.848;8.924;2023-05-11T11:49:36;97166.38;;;20.28;100.00
8697;BME280;4385;48.848;8.924;2023-05-11T11:52:01;97175.72;;;20.29;100.00
8697;BME280;4385;48.848;8.924;2023-05-11T11:54:42;97172.38;;;20.27;100.00
8697;BME280;4385;48.848;8.924;2023-05-11T11:59:59;97171.59;;;20.25;100.00
8697;BME280;4385;48.848;8.924;2023-05-11T12:02:26;97176.78;;;20.24;100.00
8697;BME280;4385;48.848;8.924;2023-05-11T12:04:56;97175.03;;;20.24;100.00
8697;BME280;4385;48.848;8.924;2023-05-11T12:07:24;97167.34;;;20.24;100.00
8697;BME280;4385;48.848;8.924;2023-05-11T12:09:50;97167.34;;;20.24;100.00
8697;BME280;4385;48.848;8.924;2023-05-11T12:12:17;97170.72;;;20.26;100.00
8697;BME280;4385;48.848;8.924;2023-05-11T12:14:44;97171.56;;;20.27;100.00
8697;BME280;4385;48.848;8.924;2023-05-11T12:17:14;97170.66;;;20.28;100.00
8697;BME280;4385;48.848;8.924;2023-05-11T12:19:43;97165.47;;;20.29;100.00
8697;BME280;4385;48.848;8.924;2023-05-11T12:22:10;97164.53;;;20.32;100.00
8697;BME280;4385;48.848;8.924;2023-05-11T12:24:38;97161.06;;;20.35;100.00
8697;BME280;4385;48.848;8.924;2023-05-11T12:27:04;97161.81;;;20.37;100.00
8697;BME280;4385;48.848;8.924;2023-05-11T12:29:30;97161.69;;;20.40;100.00
8697;BME280;4385;48.848;8.924;2023-05-11T12:31:56;97161.69;;;20.40;100.00
8697;BME280;4385;48.848;8.924;2023-05-11T12:34:21;97161.69;;;20.40;100.00
8697;BME280;4385;48.848;8.924;2023-05-11T12:36:51;97169.31;;;20.41;100.00
8697;BME280;4385;48.848;8.924;2023-05-11T12:39:21;97157.38;;;20.42;100.00
8697;BME280;4385;48.848;8.924;2023-05-11T12:41:47;97157.31;;;20.43;100.00
8697;BME280;4385;48.848;8.924;2023-05-11T12:44:15;97153.88;;;20.44;100.00
8697;BME280;4385;48.848;8.924;2023-05-11T12:46:41;97153.81;;;20.46;100.00
8697;BME280;4385;48.848;8.924;2023-05-11T12:49:08;97143.50;;;20.48;100.00
8697;BME280;4385;48.848;8.924;2023-05-11T12:51:47;97144.38;;;20.48;100.00
8697;BME280;4385;48.848;8.924;2023-05-11T12:54:26;97140.13;;;20.47;100.00
8697;BME280;4385;48.848;8.924;2023-05-11T12:56:52;97138.41;;;20.48;100.00
8697;BME280;4385;48.848;8.924;2023-05-11T12:59:32;97140.13;;;20.47;100.00
8697;BME280;4385;48.848;8.924;2023-05-11T13:04:34;97141.00;;;20.46;100.00
8697;BME280;4385;48.848;8.924;2023-05-11T13:07:00;97138.44;;;20.46;100.00
8697;BME280;4385;48.848;8.924;2023-05-11T13:09:26;97130.00;;;20.44;100.00
8697;BME280;4385;48.848;8.924;2023-05-11T13:12:12;97128.28;;;20.44;100.00
8697;BME280;4385;48.848;8.924;2023-05-11T13:14:38;97126.59;;;20.43;100.00
8697;BME280;4385;48.848;8.924;2023-05-11T13:17:04;97125.78;;;20.43;100.00
8697;BME280;4385;48.848;8.924;2023-05-11T13:19:30;97120.69;;;20.41;100.00
8697;BME280;4385;48.848;8.924;2023-05-11T13:21:56;97119.88;;;20.41;100.00
8697;BME280;4385;48.848;8.924;2023-05-11T13:24:22;97120.81;;;20.38;100.00
8697;BME280;4385;48.848;8.924;2023-05-11T13:26:48;97121.66;;;20.39;100.00
8697;BME280;4385;48.848;8.924;2023-05-11T13:29:14;97113.13;;;20.38;100.00
8697;BME280;4385;48.848;8.924;2023-05-11T13:31:47;97111.41;;;20.39;100.00
8697;BME280;4385;48.848;8.924;2023-05-11T13:34:13;97109.72;;;20.39;100.00
8697;BME280;4385;48.848;8.924;2023-05-11T13:36:38;97115.63;;;20.40;100.00
8697;BME280;4385;48.848;8.924;2023-05-11T13:39:04;97110.53;;;20.40;100.00
8697;BME280;4385;48.848;8.924;2023-05-11T13:41:30;97109.72;;;20.39;100.00
8697;BME280;4385;48.848;8.924;2023-05-11T13:43:56;97107.09;;;20.41;100.00
8697;BME280;4385;48.848;8.924;2023-05-11T13:46:21;97112.22;;;20.41;100.00
8697;BME280;4385;48.848;8.924;2023-05-11T13:48:47;97106.25;;;20.40;100.00
8697;BME280;4385;48.848;8.924;2023-05-11T13:51:12;97102.84;;;20.40;100.00
8697;BME280;4385;48.848;8.924;2023-05-11T13:53:37;97099.47;;;20.39;100.00
8697;BME280;4385;48.848;8.924;2023-05-11T13:56:03;97101.19;;;20.39;100.00
8697;BME280;4385;48.848;8.924;2023-05-11T13:58:28;97099.47;;;20.39;100.00
8697;BME280;4385;48.848;8.924;2023-05-11T14:00:54;97099.47;;;20.39;100.00